UAL402 KBOS-KDCA
Flight info
| Callsign | UAL402 |
|---|---|
| Flight time | 1h 15m |
| Altitude | 36000 |
| Route | SSOXS7 SSOXS Q167 ZIZZI KNUKK ATR LAFLN DEALE3 |
| Aircraft | B38M/M-SDE1FGHILORVWXY/HB1 |
Departure
| Time | 2026-05-04 23:10 |
|---|---|
| Airport | Boston Logan International Airport (KBOS) |
Arrival
| Time | 2026-05-05 00:25 |
|---|---|
| Airport | Ronald Reagan Washington National Airport (KDCA) |
| Time | Latitude | Longitude | Altitude | Speed | Heading |
|---|---|---|---|---|---|
| 2026-05-04 22:35 | 42.36900 | -71.01765 | 27 ft | 0 kts | 296° |
| 2026-05-04 22:54 | 42.36899 | -71.01762 | 27 ft | 2 kts | 296° |
| 2026-05-04 22:54 | 42.36892 | -71.01742 | 27 ft | 2 kts | 297° |
| 2026-05-04 22:54 | 42.36884 | -71.01723 | 27 ft | 2 kts | 300° |
| 2026-05-04 22:55 | 42.36875 | -71.01704 | 26 ft | 2 kts | 312° |
| 2026-05-04 22:55 | 42.36862 | -71.01697 | 30 ft | 1 kts | 31° |
| 2026-05-04 22:55 | 42.36859 | -71.01699 | 30 ft | 0 kts | 33° |
| 2026-05-04 23:01 | 42.36866 | -71.01693 | 25 ft | 4 kts | 33° |
| 2026-05-04 23:01 | 42.36914 | -71.01649 | 28 ft | 12 kts | 34° |
| 2026-05-04 23:01 | 42.36973 | -71.01597 | 29 ft | 8 kts | 30° |
| 2026-05-04 23:02 | 42.37017 | -71.01580 | 30 ft | 5 kts | 21° |
| 2026-05-04 23:02 | 42.37046 | -71.01534 | 30 ft | 8 kts | 73° |
| 2026-05-04 23:02 | 42.37021 | -71.01453 | 29 ft | 12 kts | 135° |
| 2026-05-04 23:02 | 42.36960 | -71.01371 | 29 ft | 13 kts | 135° |
| 2026-05-04 23:03 | 42.36924 | -71.01258 | 27 ft | 15 kts | 77° |
| 2026-05-04 23:03 | 42.36959 | -71.01137 | 27 ft | 14 kts | 42° |
| 2026-05-04 23:03 | 42.37055 | -71.01063 | 28 ft | 18 kts | 26° |
| 2026-05-04 23:03 | 42.37162 | -71.00994 | 25 ft | 15 kts | 25° |
| 2026-05-04 23:04 | 42.37262 | -71.00928 | 24 ft | 17 kts | 25° |
| 2026-05-04 23:04 | 42.37373 | -71.00870 | 24 ft | 18 kts | 20° |
| 2026-05-04 23:04 | 42.37483 | -71.00816 | 28 ft | 15 kts | 20° |
| 2026-05-04 23:04 | 42.37571 | -71.00773 | 27 ft | 13 kts | 20° |
| 2026-05-04 23:05 | 42.37658 | -71.00731 | 29 ft | 13 kts | 20° |
| 2026-05-04 23:05 | 42.37745 | -71.00689 | 32 ft | 14 kts | 19° |
| 2026-05-04 23:05 | 42.37834 | -71.00627 | 31 ft | 15 kts | 58° |
| 2026-05-04 23:05 | 42.37835 | -71.00573 | 30 ft | 0 kts | 107° |
| 2026-05-04 23:06 | 42.37834 | -71.00569 | 30 ft | 2 kts | 107° |
| 2026-05-04 23:07 | 42.37820 | -71.00514 | 29 ft | 12 kts | 112° |
| 2026-05-04 23:07 | 42.37740 | -71.00498 | 28 ft | 11 kts | 203° |
| 2026-05-04 23:07 | 42.37731 | -71.00502 | 28 ft | 0 kts | 199° |
| 2026-05-04 23:09 | 42.37542 | -71.00593 | 28 ft | 73 kts | 199° |
| 2026-05-04 23:10 | 42.36799 | -71.00951 | 57 ft | 146 kts | 200° |
| 2026-05-04 23:10 | 42.35764 | -71.01465 | 701 ft | 172 kts | 202° |
| 2026-05-04 23:10 | 42.34521 | -71.02062 | 1286 ft | 205 kts | 194° |
| 2026-05-04 23:10 | 42.33158 | -71.01756 | 2682 ft | 206 kts | 153° |
| 2026-05-04 23:11 | 42.32223 | -71.00193 | 3703 ft | 227 kts | 120° |
| 2026-05-04 23:11 | 42.31485 | -70.98259 | 4579 ft | 238 kts | 124° |
| 2026-05-04 23:11 | 42.30920 | -70.96061 | 5269 ft | 264 kts | 92° |
| 2026-05-04 23:11 | 42.31272 | -70.93557 | 6023 ft | 281 kts | 73° |
| 2026-05-04 23:12 | 42.31746 | -70.90909 | 6787 ft | 298 kts | 76° |
| 2026-05-04 23:12 | 42.32179 | -70.88138 | 7807 ft | 302 kts | 76° |
| 2026-05-04 23:12 | 42.32598 | -70.85353 | 8929 ft | 304 kts | 76° |
| 2026-05-04 23:12 | 42.32940 | -70.82516 | 9978 ft | 310 kts | 85° |
| 2026-05-04 23:13 | 42.32657 | -70.79578 | 10687 ft | 326 kts | 110° |
| 2026-05-04 23:13 | 42.31742 | -70.76680 | 11204 ft | 345 kts | 113° |
| 2026-05-04 23:13 | 42.30837 | -70.73598 | 11826 ft | 359 kts | 112° |
| 2026-05-04 23:13 | 42.29707 | -70.70557 | 12541 ft | 365 kts | 130° |
| 2026-05-04 23:14 | 42.27890 | -70.68200 | 13285 ft | 365 kts | 149° |
| 2026-05-04 23:14 | 42.25631 | -70.66747 | 13679 ft | 357 kts | 166° |
| 2026-05-04 23:14 | 42.23276 | -70.65643 | 14475 ft | 360 kts | 165° |
| 2026-05-04 23:14 | 42.20887 | -70.64520 | 15162 ft | 367 kts | 165° |
| 2026-05-04 23:15 | 42.18458 | -70.63395 | 15898 ft | 372 kts | 165° |
| 2026-05-04 23:15 | 42.15987 | -70.62309 | 16556 ft | 375 kts | 171° |
| 2026-05-04 23:15 | 42.13411 | -70.62073 | 17219 ft | 370 kts | 191° |
| 2026-05-04 23:15 | 42.10913 | -70.62850 | 17812 ft | 371 kts | 201° |
| 2026-05-04 23:16 | 42.08426 | -70.63855 | 18438 ft | 375 kts | 202° |
| 2026-05-04 23:16 | 42.05920 | -70.64907 | 19007 ft | 380 kts | 202° |
| 2026-05-04 23:16 | 42.03392 | -70.65992 | 19592 ft | 383 kts | 203° |
| 2026-05-04 23:16 | 42.00838 | -70.67103 | 20163 ft | 388 kts | 203° |
| 2026-05-04 23:17 | 41.98267 | -70.68228 | 20762 ft | 392 kts | 203° |
| 2026-05-04 23:17 | 41.95658 | -70.69372 | 21297 ft | 396 kts | 203° |
| 2026-05-04 23:17 | 41.93023 | -70.70528 | 21836 ft | 400 kts | 203° |
| 2026-05-04 23:17 | 41.90366 | -70.71693 | 22395 ft | 404 kts | 203° |
| 2026-05-04 23:18 | 41.87678 | -70.72871 | 22933 ft | 408 kts | 203° |
| 2026-05-04 23:18 | 41.84965 | -70.74059 | 23469 ft | 412 kts | 203° |
| 2026-05-04 23:18 | 41.82387 | -70.75571 | 23888 ft | 408 kts | 215° |
| 2026-05-04 23:18 | 41.79914 | -70.77467 | 24319 ft | 412 kts | 214° |
| 2026-05-04 23:19 | 41.77397 | -70.79352 | 24744 ft | 415 kts | 214° |
| 2026-05-04 23:19 | 41.74869 | -70.81250 | 25215 ft | 418 kts | 214° |
| 2026-05-04 23:19 | 41.72321 | -70.83162 | 25647 ft | 421 kts | 214° |
| 2026-05-04 23:19 | 41.69754 | -70.85087 | 26095 ft | 424 kts | 215° |
| 2026-05-04 23:20 | 41.67171 | -70.87023 | 26507 ft | 427 kts | 215° |
| 2026-05-04 23:20 | 41.64565 | -70.88973 | 26932 ft | 430 kts | 215° |
| 2026-05-04 23:20 | 41.61949 | -70.90929 | 27373 ft | 432 kts | 215° |
| 2026-05-04 23:20 | 41.59314 | -70.92897 | 27763 ft | 435 kts | 215° |
| 2026-05-04 23:21 | 41.56674 | -70.94892 | 28157 ft | 436 kts | 218° |
| 2026-05-04 23:21 | 41.54386 | -70.97450 | 28493 ft | 425 kts | 236° |
| 2026-05-04 23:21 | 41.52642 | -71.00615 | 28826 ft | 424 kts | 241° |
| 2026-05-04 23:21 | 41.50951 | -71.03859 | 29166 ft | 427 kts | 242° |
| 2026-05-04 23:22 | 41.49274 | -71.07134 | 29580 ft | 429 kts | 242° |
| 2026-05-04 23:22 | 41.47600 | -71.10440 | 29936 ft | 431 kts | 242° |
| 2026-05-04 23:22 | 41.45924 | -71.13769 | 30250 ft | 434 kts | 242° |
| 2026-05-04 23:22 | 41.44238 | -71.17121 | 30517 ft | 437 kts | 242° |
| 2026-05-04 23:23 | 41.42543 | -71.20493 | 30794 ft | 439 kts | 242° |
| 2026-05-04 23:23 | 41.40836 | -71.23884 | 31098 ft | 442 kts | 242° |
| 2026-05-04 23:23 | 41.39119 | -71.27294 | 31384 ft | 444 kts | 242° |
| 2026-05-04 23:23 | 41.37392 | -71.30717 | 31678 ft | 447 kts | 242° |
| 2026-05-04 23:24 | 41.35658 | -71.34155 | 32047 ft | 447 kts | 242° |
| 2026-05-04 23:24 | 41.33926 | -71.37587 | 32436 ft | 447 kts | 242° |
| 2026-05-04 23:24 | 41.32194 | -71.41014 | 32820 ft | 447 kts | 242° |
| 2026-05-04 23:24 | 41.30458 | -71.44447 | 33204 ft | 447 kts | 242° |
| 2026-05-04 23:25 | 41.28723 | -71.47873 | 33586 ft | 447 kts | 242° |
| 2026-05-04 23:25 | 41.26987 | -71.51296 | 33963 ft | 446 kts | 242° |
| 2026-05-04 23:25 | 41.25251 | -71.54714 | 34282 ft | 446 kts | 242° |
| 2026-05-04 23:25 | 41.23517 | -71.58128 | 34624 ft | 445 kts | 242° |
| 2026-05-04 23:26 | 41.21785 | -71.61531 | 34975 ft | 444 kts | 242° |
| 2026-05-04 23:26 | 41.20058 | -71.64922 | 35341 ft | 442 kts | 241° |
| 2026-05-04 23:26 | 41.18339 | -71.68294 | 35709 ft | 441 kts | 241° |
| 2026-05-04 23:26 | 41.16621 | -71.71662 | 35945 ft | 441 kts | 240° |
| 2026-05-04 23:27 | 41.13201 | -71.78382 | 35949 ft | 437 kts | 241° |
| 2026-05-04 23:27 | 41.09806 | -71.85056 | 35950 ft | 437 kts | 240° |
| 2026-05-04 23:28 | 41.06403 | -71.91730 | 35942 ft | 437 kts | 240° |
| 2026-05-04 23:28 | 41.03104 | -71.98482 | 35934 ft | 433 kts | 249° |
| 2026-05-04 23:29 | 41.00573 | -72.05700 | 35943 ft | 432 kts | 249° |
| 2026-05-04 23:29 | 40.98025 | -72.12910 | 35944 ft | 432 kts | 249° |
| 2026-05-04 23:30 | 40.95478 | -72.20112 | 35942 ft | 432 kts | 249° |
| 2026-05-04 23:30 | 40.92926 | -72.27311 | 35934 ft | 432 kts | 249° |
| 2026-05-04 23:31 | 40.91519 | -72.30778 | 35926 ft | 438 kts | 238° |
| 2026-05-04 23:31 | 40.89431 | -72.33813 | 35959 ft | 444 kts | 229° |
| 2026-05-04 23:31 | 40.85109 | -72.39589 | 35945 ft | 445 kts | 230° |
| 2026-05-04 23:32 | 40.80715 | -72.45347 | 35949 ft | 445 kts | 227° |
| 2026-05-04 23:32 | 40.75928 | -72.50597 | 35976 ft | 448 kts | 224° |
| 2026-05-04 23:33 | 40.71150 | -72.55853 | 35970 ft | 447 kts | 225° |
| 2026-05-04 23:33 | 40.66449 | -72.61212 | 35968 ft | 447 kts | 226° |
| 2026-05-04 23:34 | 40.62525 | -72.65725 | 35971 ft | 447 kts | 225° |
| 2026-05-04 23:34 | 40.57841 | -72.71096 | 35970 ft | 447 kts | 225° |
| 2026-05-04 23:35 | 40.53153 | -72.76460 | 35975 ft | 447 kts | 225° |
| 2026-05-04 23:35 | 40.48460 | -72.81820 | 35966 ft | 447 kts | 225° |
| 2026-05-04 23:36 | 40.43802 | -72.87129 | 35971 ft | 446 kts | 225° |
| 2026-05-04 23:36 | 40.39115 | -72.92462 | 35974 ft | 446 kts | 225° |
| 2026-05-04 23:37 | 40.34424 | -72.97788 | 35961 ft | 446 kts | 225° |
| 2026-05-04 23:37 | 40.29724 | -73.03114 | 35944 ft | 447 kts | 225° |
| 2026-05-04 23:38 | 40.25027 | -73.08430 | 35968 ft | 445 kts | 225° |
| 2026-05-04 23:38 | 40.20344 | -73.13727 | 35971 ft | 445 kts | 225° |
| 2026-05-04 23:39 | 40.15658 | -73.19016 | 35974 ft | 445 kts | 225° |
| 2026-05-04 23:39 | 40.10965 | -73.24304 | 35961 ft | 445 kts | 225° |
| 2026-05-04 23:40 | 40.06274 | -73.29571 | 35975 ft | 444 kts | 225° |
| 2026-05-04 23:40 | 40.01585 | -73.34826 | 35982 ft | 444 kts | 225° |
| 2026-05-04 23:41 | 39.96894 | -73.40072 | 35983 ft | 444 kts | 225° |
| 2026-05-04 23:41 | 39.92200 | -73.45312 | 35967 ft | 444 kts | 224° |
| 2026-05-04 23:42 | 39.87511 | -73.50538 | 35985 ft | 443 kts | 224° |
| 2026-05-04 23:42 | 39.82828 | -73.55755 | 35982 ft | 443 kts | 224° |
| 2026-05-04 23:43 | 39.78146 | -73.60967 | 35988 ft | 443 kts | 224° |
| 2026-05-04 23:43 | 39.73461 | -73.66173 | 35968 ft | 443 kts | 224° |
| 2026-05-04 23:44 | 39.68778 | -73.71366 | 35984 ft | 442 kts | 224° |
| 2026-05-04 23:44 | 39.64096 | -73.76550 | 35985 ft | 442 kts | 224° |
| 2026-05-04 23:45 | 39.59413 | -73.81724 | 35987 ft | 442 kts | 224° |
| 2026-05-04 23:45 | 39.54723 | -73.86896 | 35987 ft | 442 kts | 224° |
| 2026-05-04 23:46 | 39.50032 | -73.92061 | 35988 ft | 443 kts | 224° |
| 2026-05-04 23:46 | 39.45340 | -73.97218 | 35979 ft | 443 kts | 224° |
| 2026-05-04 23:47 | 39.40642 | -74.02368 | 35982 ft | 443 kts | 224° |
| 2026-05-04 23:47 | 39.35934 | -74.07517 | 35964 ft | 443 kts | 224° |
| 2026-05-04 23:48 | 39.31238 | -74.12644 | 35975 ft | 442 kts | 224° |
| 2026-05-04 23:48 | 39.26544 | -74.17759 | 35978 ft | 442 kts | 224° |
| 2026-05-04 23:49 | 39.21849 | -74.22866 | 35971 ft | 442 kts | 224° |
| 2026-05-04 23:49 | 39.17179 | -74.27937 | 35956 ft | 441 kts | 223° |
| 2026-05-04 23:50 | 39.12473 | -74.33037 | 35982 ft | 438 kts | 223° |
| 2026-05-04 23:50 | 39.07839 | -74.38051 | 35978 ft | 439 kts | 223° |
| 2026-05-04 23:51 | 39.03158 | -74.43106 | 35979 ft | 439 kts | 223° |
| 2026-05-04 23:51 | 39.00826 | -74.45621 | 35494 ft | 436 kts | 223° |
| 2026-05-04 23:51 | 38.98498 | -74.48131 | 34815 ft | 436 kts | 223° |
| 2026-05-04 23:52 | 38.96222 | -74.50699 | 34115 ft | 434 kts | 230° |
| 2026-05-04 23:52 | 38.94459 | -74.53813 | 33139 ft | 432 kts | 246° |
| 2026-05-04 23:52 | 38.93412 | -74.57415 | 32256 ft | 431 kts | 256° |
| 2026-05-04 23:52 | 38.92589 | -74.61099 | 31649 ft | 427 kts | 256° |
| 2026-05-04 23:53 | 38.91819 | -74.64754 | 31191 ft | 421 kts | 257° |
| 2026-05-04 23:53 | 38.91083 | -74.68367 | 30692 ft | 416 kts | 257° |
| 2026-05-04 23:53 | 38.90368 | -74.71952 | 30128 ft | 414 kts | 258° |
| 2026-05-04 23:53 | 38.89669 | -74.75531 | 29428 ft | 413 kts | 258° |
| 2026-05-04 23:54 | 38.88996 | -74.79107 | 28735 ft | 412 kts | 258° |
| 2026-05-04 23:54 | 38.88327 | -74.82652 | 28266 ft | 406 kts | 258° |
| 2026-05-04 23:54 | 38.87666 | -74.86150 | 27769 ft | 401 kts | 258° |
| 2026-05-04 23:54 | 38.87009 | -74.89615 | 27238 ft | 398 kts | 258° |
| 2026-05-04 23:55 | 38.86357 | -74.93047 | 26717 ft | 394 kts | 258° |
| 2026-05-04 23:55 | 38.85709 | -74.96452 | 26205 ft | 391 kts | 258° |
| 2026-05-04 23:55 | 38.84424 | -75.03191 | 25194 ft | 386 kts | 258° |
| 2026-05-04 23:56 | 38.83787 | -75.06523 | 24678 ft | 384 kts | 258° |
| 2026-05-04 23:56 | 38.83152 | -75.09838 | 24188 ft | 382 kts | 258° |
| 2026-05-04 23:56 | 38.82518 | -75.13140 | 23692 ft | 380 kts | 258° |
| 2026-05-04 23:56 | 38.81887 | -75.16425 | 23146 ft | 379 kts | 258° |
| 2026-05-04 23:57 | 38.81258 | -75.19692 | 22618 ft | 376 kts | 258° |
| 2026-05-04 23:57 | 38.80862 | -75.22978 | 22058 ft | 372 kts | 268° |
| 2026-05-04 23:57 | 38.80668 | -75.26273 | 21602 ft | 368 kts | 267° |
| 2026-05-04 23:57 | 38.80465 | -75.29524 | 21178 ft | 364 kts | 267° |
| 2026-05-04 23:58 | 38.80265 | -75.32748 | 20736 ft | 361 kts | 266° |
| 2026-05-04 23:58 | 38.80065 | -75.35946 | 20295 ft | 358 kts | 266° |
| 2026-05-04 23:58 | 38.79866 | -75.39121 | 19869 ft | 356 kts | 266° |
| 2026-05-04 23:58 | 38.79668 | -75.42269 | 19450 ft | 353 kts | 266° |
| 2026-05-04 23:59 | 38.79471 | -75.45396 | 19027 ft | 351 kts | 266° |
| 2026-05-04 23:59 | 38.79274 | -75.48505 | 18608 ft | 349 kts | 266° |
| 2026-05-04 23:59 | 38.79077 | -75.51593 | 18144 ft | 348 kts | 266° |
| 2026-05-04 23:59 | 38.78882 | -75.54643 | 17683 ft | 346 kts | 266° |
| 2026-05-05 00:00 | 38.78684 | -75.57741 | 17269 ft | 342 kts | 266° |
| 2026-05-05 00:00 | 38.78621 | -75.58724 | 17139 ft | 341 kts | 266° |
| 2026-05-05 00:00 | 38.78298 | -75.63712 | 16495 ft | 335 kts | 266° |
| 2026-05-05 00:00 | 38.78106 | -75.66671 | 16115 ft | 331 kts | 266° |
| 2026-05-05 00:01 | 38.77916 | -75.69591 | 15797 ft | 326 kts | 266° |
| 2026-05-05 00:01 | 38.77727 | -75.72478 | 15456 ft | 324 kts | 266° |
| 2026-05-05 00:01 | 38.77536 | -75.75381 | 15081 ft | 329 kts | 266° |
| 2026-05-05 00:01 | 38.77342 | -75.78318 | 14705 ft | 332 kts | 266° |
| 2026-05-05 00:02 | 38.77146 | -75.81273 | 14324 ft | 334 kts | 265° |
| 2026-05-05 00:02 | 38.76949 | -75.84240 | 13947 ft | 334 kts | 265° |
| 2026-05-05 00:02 | 38.76752 | -75.87198 | 13542 ft | 333 kts | 265° |
| 2026-05-05 00:02 | 38.76555 | -75.90149 | 13122 ft | 331 kts | 265° |
| 2026-05-05 00:03 | 38.76359 | -75.93072 | 12723 ft | 327 kts | 265° |
| 2026-05-05 00:03 | 38.76164 | -75.95956 | 12346 ft | 323 kts | 266° |
| 2026-05-05 00:03 | 38.75971 | -75.98806 | 11979 ft | 319 kts | 266° |
| 2026-05-05 00:03 | 38.75779 | -76.01625 | 11611 ft | 316 kts | 266° |
| 2026-05-05 00:04 | 38.75590 | -76.04413 | 11252 ft | 312 kts | 266° |
| 2026-05-05 00:04 | 38.75491 | -76.07168 | 11018 ft | 309 kts | 275° |
| 2026-05-05 00:04 | 38.75749 | -76.09918 | 10931 ft | 313 kts | 277° |
| 2026-05-05 00:04 | 38.76014 | -76.12696 | 10892 ft | 314 kts | 277° |
| 2026-05-05 00:05 | 38.76277 | -76.15475 | 10846 ft | 313 kts | 277° |
| 2026-05-05 00:05 | 38.76536 | -76.18236 | 10784 ft | 311 kts | 277° |
| 2026-05-05 00:05 | 38.76794 | -76.20984 | 10723 ft | 311 kts | 277° |
| 2026-05-05 00:05 | 38.77050 | -76.23728 | 10661 ft | 310 kts | 277° |
| 2026-05-05 00:06 | 38.77306 | -76.26471 | 10603 ft | 309 kts | 277° |
| 2026-05-05 00:06 | 38.77557 | -76.29173 | 10545 ft | 300 kts | 277° |
| 2026-05-05 00:06 | 38.77798 | -76.31768 | 10490 ft | 287 kts | 277° |
| 2026-05-05 00:06 | 38.78027 | -76.34249 | 10435 ft | 276 kts | 277° |
| 2026-05-05 00:07 | 38.78253 | -76.36699 | 10386 ft | 283 kts | 277° |
| 2026-05-05 00:07 | 38.78489 | -76.39261 | 10321 ft | 293 kts | 277° |
| 2026-05-05 00:07 | 38.78730 | -76.41883 | 10264 ft | 298 kts | 277° |
| 2026-05-05 00:07 | 38.78972 | -76.44524 | 10216 ft | 299 kts | 277° |
| 2026-05-05 00:08 | 38.79214 | -76.47170 | 10110 ft | 298 kts | 277° |
| 2026-05-05 00:08 | 38.79454 | -76.49807 | 10057 ft | 298 kts | 277° |
| 2026-05-05 00:08 | 38.79694 | -76.52439 | 10041 ft | 296 kts | 276° |
| 2026-05-05 00:08 | 38.79814 | -76.55031 | 9943 ft | 287 kts | 272° |
| 2026-05-05 00:09 | 38.79891 | -76.57544 | 9741 ft | 279 kts | 272° |
| 2026-05-05 00:09 | 38.79973 | -76.60002 | 9540 ft | 271 kts | 272° |
| 2026-05-05 00:09 | 38.80055 | -76.62384 | 9363 ft | 264 kts | 272° |
| 2026-05-05 00:09 | 38.80136 | -76.64694 | 9192 ft | 256 kts | 272° |
| 2026-05-05 00:10 | 38.80215 | -76.66938 | 9028 ft | 248 kts | 272° |
| 2026-05-05 00:10 | 38.80291 | -76.69112 | 8873 ft | 248 kts | 271° |
| 2026-05-05 00:10 | 38.80370 | -76.71334 | 8750 ft | 242 kts | 271° |
| 2026-05-05 00:10 | 38.80443 | -76.73420 | 8604 ft | 234 kts | 271° |
| 2026-05-05 00:11 | 38.80513 | -76.75442 | 8420 ft | 220 kts | 271° |
| 2026-05-05 00:11 | 38.80618 | -76.77329 | 8269 ft | 206 kts | 280° |
| 2026-05-05 00:11 | 38.81250 | -76.78929 | 8078 ft | 199 kts | 302° |
| 2026-05-05 00:11 | 38.82055 | -76.80288 | 7974 ft | 182 kts | 301° |
| 2026-05-05 00:12 | 38.82805 | -76.81553 | 7858 ft | 176 kts | 301° |
| 2026-05-05 00:12 | 38.83548 | -76.82789 | 7776 ft | 175 kts | 301° |
| 2026-05-05 00:12 | 38.84295 | -76.84019 | 7681 ft | 175 kts | 301° |
| 2026-05-05 00:12 | 38.85044 | -76.85245 | 7579 ft | 175 kts | 301° |
| 2026-05-05 00:13 | 38.85798 | -76.86474 | 7464 ft | 176 kts | 301° |
| 2026-05-05 00:13 | 38.86556 | -76.87704 | 7360 ft | 176 kts | 302° |
| 2026-05-05 00:13 | 38.87317 | -76.88934 | 7247 ft | 176 kts | 302° |
| 2026-05-05 00:13 | 38.88126 | -76.90125 | 7124 ft | 179 kts | 309° |
| 2026-05-05 00:14 | 38.89017 | -76.91239 | 7001 ft | 179 kts | 308° |
| 2026-05-05 00:14 | 38.89906 | -76.92360 | 6885 ft | 179 kts | 308° |
| 2026-05-05 00:14 | 38.90794 | -76.93485 | 6764 ft | 179 kts | 308° |
| 2026-05-05 00:14 | 38.91679 | -76.94613 | 6652 ft | 179 kts | 308° |
| 2026-05-05 00:15 | 38.92564 | -76.95744 | 6533 ft | 180 kts | 308° |
| 2026-05-05 00:15 | 38.93448 | -76.96877 | 6415 ft | 180 kts | 307° |
| 2026-05-05 00:15 | 38.94335 | -76.98015 | 6312 ft | 181 kts | 307° |
| 2026-05-05 00:15 | 38.95225 | -76.99159 | 6187 ft | 181 kts | 307° |
| 2026-05-05 00:16 | 38.96114 | -77.00302 | 6066 ft | 181 kts | 307° |
| 2026-05-05 00:16 | 38.97001 | -77.01442 | 5948 ft | 180 kts | 307° |
| 2026-05-05 00:16 | 38.97885 | -77.02579 | 5825 ft | 180 kts | 307° |
| 2026-05-05 00:16 | 38.98766 | -77.03713 | 5712 ft | 179 kts | 307° |
| 2026-05-05 00:17 | 38.99647 | -77.04848 | 5600 ft | 179 kts | 307° |
| 2026-05-05 00:17 | 39.00515 | -77.05967 | 5487 ft | 179 kts | 307° |
| 2026-05-05 00:17 | 39.01394 | -77.07100 | 5361 ft | 179 kts | 307° |
| 2026-05-05 00:17 | 39.02274 | -77.08236 | 5250 ft | 179 kts | 307° |
| 2026-05-05 00:18 | 39.03187 | -77.09341 | 5140 ft | 182 kts | 313° |
| 2026-05-05 00:18 | 39.04206 | -77.10324 | 5018 ft | 184 kts | 316° |
| 2026-05-05 00:18 | 39.05239 | -77.11287 | 4879 ft | 182 kts | 315° |
| 2026-05-05 00:18 | 39.05958 | -77.12486 | 4602 ft | 163 kts | 272° |
| 2026-05-05 00:19 | 39.05859 | -77.13880 | 4405 ft | 156 kts | 246° |
| 2026-05-05 00:19 | 39.05295 | -77.15049 | 4208 ft | 155 kts | 223° |
| 2026-05-05 00:19 | 39.04375 | -77.15755 | 3976 ft | 157 kts | 199° |
| 2026-05-05 00:19 | 39.03272 | -77.15832 | 3772 ft | 161 kts | 181° |
| 2026-05-05 00:20 | 39.02158 | -77.15721 | 3589 ft | 160 kts | 182° |
| 2026-05-05 00:20 | 39.01055 | -77.15628 | 3441 ft | 158 kts | 181° |
| 2026-05-05 00:20 | 38.99962 | -77.15549 | 3296 ft | 156 kts | 182° |
| 2026-05-05 00:20 | 38.98875 | -77.15477 | 3149 ft | 157 kts | 182° |
| 2026-05-05 00:21 | 38.98161 | -77.15432 | 3090 ft | 151 kts | 182° |
| 2026-05-05 00:21 | 38.97123 | -77.15340 | 2904 ft | 150 kts | 174° |
| 2026-05-05 00:21 | 38.96194 | -77.14706 | 2642 ft | 155 kts | 148° |
| 2026-05-05 00:21 | 38.95344 | -77.13840 | 2455 ft | 156 kts | 149° |
| 2026-05-05 00:22 | 38.94496 | -77.12960 | 2294 ft | 156 kts | 151° |
| 2026-05-05 00:22 | 38.93532 | -77.12743 | 2107 ft | 140 kts | 200° |
| 2026-05-05 00:22 | 38.92598 | -77.13089 | 2123 ft | 143 kts | 182° |
| 2026-05-05 00:22 | 38.91684 | -77.12563 | 1996 ft | 154 kts | 138° |
| 2026-05-05 00:23 | 38.90983 | -77.11490 | 1924 ft | 158 kts | 136° |
| 2026-05-05 00:23 | 38.90516 | -77.10180 | 1682 ft | 168 kts | 109° |
| 2026-05-05 00:23 | 38.90262 | -77.08749 | 1452 ft | 159 kts | 108° |
| 2026-05-05 00:23 | 38.89975 | -77.07427 | 1295 ft | 149 kts | 120° |
| 2026-05-05 00:24 | 38.89370 | -77.06403 | 1071 ft | 144 kts | 138° |
| 2026-05-05 00:24 | 38.88678 | -77.05470 | 1044 ft | 145 kts | 139° |
| 2026-05-05 00:24 | 38.87917 | -77.04639 | 624 ft | 144 kts | 148° |
| 2026-05-05 00:24 | 38.87037 | -77.04071 | 238 ft | 136 kts | 164° |
| 2026-05-05 00:25 | 38.86107 | -77.03865 | 75 ft | 138 kts | 177° |
| 2026-05-05 00:25 | 38.85255 | -77.03786 | 28 ft | 97 kts | 175° |
| 2026-05-05 00:25 | 38.84828 | -77.03743 | 28 ft | 37 kts | 176° |
| 2026-05-05 00:25 | 38.84592 | -77.03719 | 26 ft | 27 kts | 176° |
| 2026-05-05 00:26 | 38.84429 | -77.03719 | 26 ft | 14 kts | 203° |
| 2026-05-05 00:26 | 38.84392 | -77.03782 | 28 ft | 8 kts | 264° |
| 2026-05-05 00:26 | 38.84390 | -77.03811 | 29 ft | 3 kts | 266° |
| 2026-05-05 00:26 | 38.84390 | -77.03812 | 29 ft | 0 kts | 266° |
| 2026-05-05 00:27 | 38.84394 | -77.03816 | 29 ft | 3 kts | 321° |
| 2026-05-05 00:27 | 38.84459 | -77.03845 | 28 ft | 15 kts | 354° |
| 2026-05-05 00:28 | 38.84569 | -77.03857 | 26 ft | 17 kts | 355° |
| 2026-05-05 00:28 | 38.84675 | -77.03868 | 28 ft | 14 kts | 355° |
| 2026-05-05 00:28 | 38.84762 | -77.03876 | 27 ft | 13 kts | 356° |
| 2026-05-05 00:28 | 38.84866 | -77.03887 | 25 ft | 12 kts | 356° |
| 2026-05-05 00:29 | 38.84959 | -77.03896 | 24 ft | 15 kts | 355° |
| 2026-05-05 00:29 | 38.85058 | -77.03906 | 27 ft | 14 kts | 355° |
| 2026-05-05 00:29 | 38.85140 | -77.03922 | 26 ft | 9 kts | 318° |
| 2026-05-05 00:29 | 38.85180 | -77.03976 | 27 ft | 8 kts | 344° |
| 2026-05-05 00:30 | 38.85243 | -77.03985 | 26 ft | 10 kts | 355° |
| 2026-05-05 00:30 | 38.85318 | -77.03996 | 27 ft | 11 kts | 337° |
| 2026-05-05 00:30 | 38.85328 | -77.04065 | 27 ft | 8 kts | 253° |
| 2026-05-05 00:30 | 38.85307 | -77.04147 | 27 ft | 11 kts | 252° |
| 2026-05-05 00:31 | 38.85289 | -77.04210 | 27 ft | 0 kts | 240° |
| 2026-05-05 00:31 | 38.85287 | -77.04211 | 27 ft | 1 kts | 213° |
| 2026-05-05 00:31 | 38.85260 | -77.04210 | 27 ft | 2 kts | 171° |
| 2026-05-05 00:31 | 38.85240 | -77.04203 | 27 ft | 4 kts | 162° |
| 2026-05-05 00:32 | 38.85236 | -77.04201 | 27 ft | 0 kts | 163° |